sensor_id;sensor_type;location;lat;lon;timestamp;P1;durP1;ratioP1;P2;durP2;ratioP2
13584;SDS011;6863;48.402;9.994;2022-12-17T00:01:01;21.37;;;15.30;;
13584;SDS011;6863;48.402;9.994;2022-12-17T00:03:46;19.10;;;14.73;;
13584;SDS011;6863;48.402;9.994;2022-12-17T00:06:30;19.87;;;14.93;;
13584;SDS011;6863;48.402;9.994;2022-12-17T00:09:14;18.53;;;14.53;;
13584;SDS011;6863;48.402;9.994;2022-12-17T00:11:58;20.50;;;15.40;;
13584;SDS011;6863;48.402;9.994;2022-12-17T00:14:42;21.50;;;14.37;;
13584;SDS011;6863;48.402;9.994;2022-12-17T00:17:37;22.80;;;16.13;;
13584;SDS011;6863;48.402;9.994;2022-12-17T00:20:22;21.30;;;16.13;;
13584;SDS011;6863;48.402;9.994;2022-12-17T00:23:06;25.40;;;16.47;;
13584;SDS011;6863;48.402;9.994;2022-12-17T00:25:51;23.30;;;15.57;;
13584;SDS011;6863;48.402;9.994;2022-12-17T00:28:37;21.93;;;14.80;;
13584;SDS011;6863;48.402;9.994;2022-12-17T00:31:22;19.77;;;15.50;;
13584;SDS011;6863;48.402;9.994;2022-12-17T00:34:06;19.43;;;15.17;;
13584;SDS011;6863;48.402;9.994;2022-12-17T00:36:50;22.07;;;15.40;;
13584;SDS011;6863;48.402;9.994;2022-12-17T00:39:34;21.63;;;14.70;;
13584;SDS011;6863;48.402;9.994;2022-12-17T00:42:18;21.20;;;15.67;;
13584;SDS011;6863;48.402;9.994;2022-12-17T00:45:02;19.57;;;14.63;;
13584;SDS011;6863;48.402;9.994;2022-12-17T00:47:47;23.23;;;17.13;;
13584;SDS011;6863;48.402;9.994;2022-12-17T00:50:31;20.60;;;14.80;;
13584;SDS011;6863;48.402;9.994;2022-12-17T00:53:16;19.27;;;14.50;;
13584;SDS011;6863;48.402;9.994;2022-12-17T00:56:00;18.93;;;15.13;;
13584;SDS011;6863;48.402;9.994;2022-12-17T00:58:52;20.10;;;15.10;;
13584;SDS011;6863;48.402;9.994;2022-12-17T01:01:36;24.27;;;15.97;;
13584;SDS011;6863;48.402;9.994;2022-12-17T01:04:20;19.77;;;15.43;;
13584;SDS011;6863;48.402;9.994;2022-12-17T01:07:04;21.87;;;15.57;;
13584;SDS011;6863;48.402;9.994;2022-12-17T01:09:48;21.90;;;15.93;;
13584;SDS011;6863;48.402;9.994;2022-12-17T01:12:33;20.07;;;15.30;;
13584;SDS011;6863;48.402;9.994;2022-12-17T01:15:17;20.43;;;15.43;;
13584;SDS011;6863;48.402;9.994;2022-12-17T01:18:01;23.37;;;15.97;;
13584;SDS011;6863;48.402;9.994;2022-12-17T01:20:45;21.57;;;15.53;;
13584;SDS011;6863;48.402;9.994;2022-12-17T01:23:29;20.00;;;15.23;;
13584;SDS011;6863;48.402;9.994;2022-12-17T01:26:13;22.53;;;16.23;;
13584;SDS011;6863;48.402;9.994;2022-12-17T01:28:57;20.23;;;15.30;;
13584;SDS011;6863;48.402;9.994;2022-12-17T01:31:41;21.93;;;16.03;;
13584;SDS011;6863;48.402;9.994;2022-12-17T01:34:25;20.87;;;15.27;;
13584;SDS011;6863;48.402;9.994;2022-12-17T01:37:09;24.67;;;16.40;;
13584;SDS011;6863;48.402;9.994;2022-12-17T01:39:57;22.60;;;16.63;;
13584;SDS011;6863;48.402;9.994;2022-12-17T01:42:45;24.93;;;16.00;;
13584;SDS011;6863;48.402;9.994;2022-12-17T01:45:47;21.43;;;15.57;;
13584;SDS011;6863;48.402;9.994;2022-12-17T01:48:40;21.47;;;16.97;;
13584;SDS011;6863;48.402;9.994;2022-12-17T01:51:27;22.23;;;16.03;;
13584;SDS011;6863;48.402;9.994;2022-12-17T01:54:13;23.73;;;16.50;;
13584;SDS011;6863;48.402;9.994;2022-12-17T01:56:57;22.50;;;15.47;;
13584;SDS011;6863;48.402;9.994;2022-12-17T02:02:58;21.60;;;15.83;;
13584;SDS011;6863;48.402;9.994;2022-12-17T02:08:53;21.77;;;16.90;;
13584;SDS011;6863;48.402;9.994;2022-12-17T02:14:56;23.33;;;16.33;;
13584;SDS011;6863;48.402;9.994;2022-12-17T02:17:44;25.00;;;17.20;;
13584;SDS011;6863;48.402;9.994;2022-12-17T02:20:39;24.40;;;16.97;;
13584;SDS011;6863;48.402;9.994;2022-12-17T02:26:13;25.23;;;17.47;;
13584;SDS011;6863;48.402;9.994;2022-12-17T02:29:19;24.77;;;17.83;;
13584;SDS011;6863;48.402;9.994;2022-12-17T02:32:06;25.27;;;17.37;;
13584;SDS011;6863;48.402;9.994;2022-12-17T02:34:51;23.03;;;16.63;;
13584;SDS011;6863;48.402;9.994;2022-12-17T02:37:36;24.40;;;17.50;;
13584;SDS011;6863;48.402;9.994;2022-12-17T02:40:20;23.33;;;17.77;;
13584;SDS011;6863;48.402;9.994;2022-12-17T02:43:07;23.77;;;18.17;;
13584;SDS011;6863;48.402;9.994;2022-12-17T02:45:53;26.20;;;18.03;;
13584;SDS011;6863;48.402;9.994;2022-12-17T02:48:39;26.30;;;17.83;;
13584;SDS011;6863;48.402;9.994;2022-12-17T02:51:24;20.80;;;16.23;;
13584;SDS011;6863;48.402;9.994;2022-12-17T02:54:08;23.33;;;16.70;;
13584;SDS011;6863;48.402;9.994;2022-12-17T02:56:52;21.97;;;15.67;;
13584;SDS011;6863;48.402;9.994;2022-12-17T02:59:37;21.83;;;16.43;;
13584;SDS011;6863;48.402;9.994;2022-12-17T03:02:21;22.70;;;16.97;;
13584;SDS011;6863;48.402;9.994;2022-12-17T03:05:05;23.10;;;16.07;;
13584;SDS011;6863;48.402;9.994;2022-12-17T03:07:49;25.20;;;18.00;;
13584;SDS011;6863;48.402;9.994;2022-12-17T03:10:33;24.50;;;17.60;;
13584;SDS011;6863;48.402;9.994;2022-12-17T03:13:22;26.10;;;17.83;;
13584;SDS011;6863;48.402;9.994;2022-12-17T03:16:11;24.37;;;17.90;;
13584;SDS011;6863;48.402;9.994;2022-12-17T03:18:58;22.73;;;16.67;;
13584;SDS011;6863;48.402;9.994;2022-12-17T03:21:42;26.43;;;17.10;;
13584;SDS011;6863;48.402;9.994;2022-12-17T03:24:26;28.97;;;18.10;;
13584;SDS011;6863;48.402;9.994;2022-12-17T03:27:11;21.80;;;16.20;;
13584;SDS011;6863;48.402;9.994;2022-12-17T03:29:55;23.00;;;16.97;;
13584;SDS011;6863;48.402;9.994;2022-12-17T03:32:39;25.87;;;18.43;;
13584;SDS011;6863;48.402;9.994;2022-12-17T03:35:24;24.57;;;17.03;;
13584;SDS011;6863;48.402;9.994;2022-12-17T03:38:08;22.93;;;16.17;;
13584;SDS011;6863;48.402;9.994;2022-12-17T03:40:53;24.77;;;16.53;;
13584;SDS011;6863;48.402;9.994;2022-12-17T03:43:37;20.47;;;15.77;;
13584;SDS011;6863;48.402;9.994;2022-12-17T03:46:21;24.03;;;17.53;;
13584;SDS011;6863;48.402;9.994;2022-12-17T03:49:05;23.50;;;17.13;;
13584;SDS011;6863;48.402;9.994;2022-12-17T03:51:50;23.00;;;16.13;;
13584;SDS011;6863;48.402;9.994;2022-12-17T03:54:34;21.40;;;15.90;;
13584;SDS011;6863;48.402;9.994;2022-12-17T03:57:18;25.80;;;16.60;;
13584;SDS011;6863;48.402;9.994;2022-12-17T04:00:02;24.27;;;16.10;;
13584;SDS011;6863;48.402;9.994;2022-12-17T04:02:47;25.90;;;17.33;;
13584;SDS011;6863;48.402;9.994;2022-12-17T04:05:31;28.53;;;19.83;;
13584;SDS011;6863;48.402;9.994;2022-12-17T04:08:15;31.60;;;19.20;;
13584;SDS011;6863;48.402;9.994;2022-12-17T04:10:59;25.93;;;18.50;;
13584;SDS011;6863;48.402;9.994;2022-12-17T04:13:43;26.83;;;17.53;;
13584;SDS011;6863;48.402;9.994;2022-12-17T04:16:27;25.77;;;17.33;;
13584;SDS011;6863;48.402;9.994;2022-12-17T04:19:11;24.13;;;17.00;;
13584;SDS011;6863;48.402;9.994;2022-12-17T04:21:55;27.10;;;19.30;;
13584;SDS011;6863;48.402;9.994;2022-12-17T04:24:39;26.67;;;18.30;;
13584;SDS011;6863;48.402;9.994;2022-12-17T04:27:23;29.70;;;19.17;;
13584;SDS011;6863;48.402;9.994;2022-12-17T04:30:07;27.23;;;18.30;;
13584;SDS011;6863;48.402;9.994;2022-12-17T04:32:52;24.90;;;18.07;;
13584;SDS011;6863;48.402;9.994;2022-12-17T04:35:36;26.50;;;18.47;;
13584;SDS011;6863;48.402;9.994;2022-12-17T04:38:20;29.33;;;19.57;;
13584;SDS011;6863;48.402;9.994;2022-12-17T04:41:04;28.77;;;19.80;;
13584;SDS011;6863;48.402;9.994;2022-12-17T04:43:48;31.40;;;19.77;;
13584;SDS011;6863;48.402;9.994;2022-12-17T04:46:32;41.83;;;23.97;;
13584;SDS011;6863;48.402;9.994;2022-12-17T04:49:16;36.53;;;22.33;;
13584;SDS011;6863;48.402;9.994;2022-12-17T04:52:00;34.60;;;21.50;;
13584;SDS011;6863;48.402;9.994;2022-12-17T04:54:44;34.50;;;21.10;;
13584;SDS011;6863;48.402;9.994;2022-12-17T04:57:28;32.67;;;21.50;;
13584;SDS011;6863;48.402;9.994;2022-12-17T05:00:12;31.97;;;20.13;;
13584;SDS011;6863;48.402;9.994;2022-12-17T05:03:08;31.27;;;18.83;;
13584;SDS011;6863;48.402;9.994;2022-12-17T05:05:55;26.90;;;20.13;;
13584;SDS011;6863;48.402;9.994;2022-12-17T05:08:39;30.97;;;20.03;;
13584;SDS011;6863;48.402;9.994;2022-12-17T05:11:23;30.40;;;19.80;;
13584;SDS011;6863;48.402;9.994;2022-12-17T05:14:07;28.17;;;17.70;;
13584;SDS011;6863;48.402;9.994;2022-12-17T05:16:52;27.53;;;17.93;;
13584;SDS011;6863;48.402;9.994;2022-12-17T05:19:36;25.00;;;17.90;;
13584;SDS011;6863;48.402;9.994;2022-12-17T05:22:20;32.53;;;20.70;;
13584;SDS011;6863;48.402;9.994;2022-12-17T05:25:04;28.70;;;18.50;;
13584;SDS011;6863;48.402;9.994;2022-12-17T05:27:48;31.20;;;19.13;;
13584;SDS011;6863;48.402;9.994;2022-12-17T05:30:32;24.53;;;17.20;;
13584;SDS011;6863;48.402;9.994;2022-12-17T05:33:16;26.83;;;16.80;;
13584;SDS011;6863;48.402;9.994;2022-12-17T05:36:02;26.80;;;17.53;;
13584;SDS011;6863;48.402;9.994;2022-12-17T05:38:46;27.57;;;18.00;;
13584;SDS011;6863;48.402;9.994;2022-12-17T05:41:31;26.77;;;17.50;;
13584;SDS011;6863;48.402;9.994;2022-12-17T05:44:15;26.23;;;17.03;;
13584;SDS011;6863;48.402;9.994;2022-12-17T05:47:00;28.67;;;18.53;;
13584;SDS011;6863;48.402;9.994;2022-12-17T05:49:48;31.33;;;20.10;;
13584;SDS011;6863;48.402;9.994;2022-12-17T05:52:32;31.03;;;20.37;;
13584;SDS011;6863;48.402;9.994;2022-12-17T05:55:22;30.33;;;18.53;;
13584;SDS011;6863;48.402;9.994;2022-12-17T05:58:08;31.00;;;19.70;;
13584;SDS011;6863;48.402;9.994;2022-12-17T06:00:57;31.17;;;20.47;;
13584;SDS011;6863;48.402;9.994;2022-12-17T06:03:43;29.10;;;19.20;;
13584;SDS011;6863;48.402;9.994;2022-12-17T06:06:27;31.03;;;20.73;;
13584;SDS011;6863;48.402;9.994;2022-12-17T06:09:11;32.20;;;20.93;;
13584;SDS011;6863;48.402;9.994;2022-12-17T06:11:55;34.33;;;21.53;;
13584;SDS011;6863;48.402;9.994;2022-12-17T06:14:39;32.43;;;20.60;;
13584;SDS011;6863;48.402;9.994;2022-12-17T06:17:23;32.63;;;20.33;;
13584;SDS011;6863;48.402;9.994;2022-12-17T06:20:07;35.77;;;20.73;;
13584;SDS011;6863;48.402;9.994;2022-12-17T06:23:02;33.50;;;21.30;;
13584;SDS011;6863;48.402;9.994;2022-12-17T06:25:50;32.50;;;19.80;;
13584;SDS011;6863;48.402;9.994;2022-12-17T06:28:35;32.33;;;21.47;;
13584;SDS011;6863;48.402;9.994;2022-12-17T06:31:22;33.20;;;22.50;;
13584;SDS011;6863;48.402;9.994;2022-12-17T06:34:07;34.63;;;21.10;;
13584;SDS011;6863;48.402;9.994;2022-12-17T06:36:51;40.90;;;23.10;;
13584;SDS011;6863;48.402;9.994;2022-12-17T06:39:35;40.70;;;22.80;;
13584;SDS011;6863;48.402;9.994;2022-12-17T06:42:19;43.27;;;23.03;;
13584;SDS011;6863;48.402;9.994;2022-12-17T06:45:03;38.23;;;21.37;;
13584;SDS011;6863;48.402;9.994;2022-12-17T06:47:51;44.40;;;22.70;;
13584;SDS011;6863;48.402;9.994;2022-12-17T06:50:35;48.40;;;26.83;;
13584;SDS011;6863;48.402;9.994;2022-12-17T06:53:19;46.77;;;24.77;;
13584;SDS011;6863;48.402;9.994;2022-12-17T06:56:03;43.90;;;24.67;;
13584;SDS011;6863;48.402;9.994;2022-12-17T06:58:58;39.90;;;22.07;;
13584;SDS011;6863;48.402;9.994;2022-12-17T07:01:43;40.50;;;22.60;;
13584;SDS011;6863;48.402;9.994;2022-12-17T07:04:27;43.47;;;23.40;;
13584;SDS011;6863;48.402;9.994;2022-12-17T07:07:11;39.97;;;22.60;;
13584;SDS011;6863;48.402;9.994;2022-12-17T07:09:55;40.67;;;23.10;;
13584;SDS011;6863;48.402;9.994;2022-12-17T07:12:39;43.97;;;25.20;;
13584;SDS011;6863;48.402;9.994;2022-12-17T07:15:23;35.67;;;21.90;;
13584;SDS011;6863;48.402;9.994;2022-12-17T07:18:07;39.27;;;22.03;;
13584;SDS011;6863;48.402;9.994;2022-12-17T07:20:52;36.33;;;21.07;;
13584;SDS011;6863;48.402;9.994;2022-12-17T07:23:39;36.90;;;22.50;;
13584;SDS011;6863;48.402;9.994;2022-12-17T07:26:24;41.10;;;22.20;;
13584;SDS011;6863;48.402;9.994;2022-12-17T07:29:08;35.47;;;20.80;;
13584;SDS011;6863;48.402;9.994;2022-12-17T07:31:52;40.90;;;22.73;;
13584;SDS011;6863;48.402;9.994;2022-12-17T07:34:36;37.20;;;22.43;;
13584;SDS011;6863;48.402;9.994;2022-12-17T07:37:20;38.43;;;22.17;;
13584;SDS011;6863;48.402;9.994;2022-12-17T07:40:04;39.37;;;22.33;;
13584;SDS011;6863;48.402;9.994;2022-12-17T07:42:48;36.43;;;20.97;;
13584;SDS011;6863;48.402;9.994;2022-12-17T07:45:32;33.07;;;20.37;;
13584;SDS011;6863;48.402;9.994;2022-12-17T07:48:17;36.63;;;19.83;;
13584;SDS011;6863;48.402;9.994;2022-12-17T07:51:01;33.13;;;20.10;;
13584;SDS011;6863;48.402;9.994;2022-12-17T07:53:45;36.13;;;20.77;;
13584;SDS011;6863;48.402;9.994;2022-12-17T07:56:29;35.63;;;20.43;;
13584;SDS011;6863;48.402;9.994;2022-12-17T07:59:14;31.13;;;20.33;;
13584;SDS011;6863;48.402;9.994;2022-12-17T08:01:59;32.27;;;20.27;;
13584;SDS011;6863;48.402;9.994;2022-12-17T08:04:47;32.43;;;21.57;;
13584;SDS011;6863;48.402;9.994;2022-12-17T08:08:07;32.37;;;19.77;;
13584;SDS011;6863;48.402;9.994;2022-12-17T08:10:52;27.70;;;20.07;;
13584;SDS011;6863;48.402;9.994;2022-12-17T08:13:36;25.73;;;18.00;;
13584;SDS011;6863;48.402;9.994;2022-12-17T08:16:20;30.47;;;20.07;;
13584;SDS011;6863;48.402;9.994;2022-12-17T08:19:04;28.77;;;20.00;;
13584;SDS011;6863;48.402;9.994;2022-12-17T08:21:48;26.50;;;18.40;;
13584;SDS011;6863;48.402;9.994;2022-12-17T08:24:32;26.17;;;17.67;;
13584;SDS011;6863;48.402;9.994;2022-12-17T08:27:17;30.50;;;19.40;;
13584;SDS011;6863;48.402;9.994;2022-12-17T08:30:01;24.53;;;17.97;;
13584;SDS011;6863;48.402;9.994;2022-12-17T08:32:45;21.63;;;17.10;;
13584;SDS011;6863;48.402;9.994;2022-12-17T08:35:29;24.60;;;17.33;;
13584;SDS011;6863;48.402;9.994;2022-12-17T08:38:13;24.97;;;18.17;;
13584;SDS011;6863;48.402;9.994;2022-12-17T08:40:58;21.83;;;17.23;;
13584;SDS011;6863;48.402;9.994;2022-12-17T08:43:43;23.03;;;17.10;;
13584;SDS011;6863;48.402;9.994;2022-12-17T08:46:27;22.63;;;17.63;;
13584;SDS011;6863;48.402;9.994;2022-12-17T08:49:11;23.67;;;17.60;;
13584;SDS011;6863;48.402;9.994;2022-12-17T08:52:15;24.23;;;18.70;;
13584;SDS011;6863;48.402;9.994;2022-12-17T08:54:59;23.43;;;18.50;;
13584;SDS011;6863;48.402;9.994;2022-12-17T08:57:50;23.13;;;17.53;;
13584;SDS011;6863;48.402;9.994;2022-12-17T09:00:35;22.70;;;18.00;;
13584;SDS011;6863;48.402;9.994;2022-12-17T09:03:19;23.87;;;18.27;;
13584;SDS011;6863;48.402;9.994;2022-12-17T09:06:03;25.10;;;18.10;;
13584;SDS011;6863;48.402;9.994;2022-12-17T09:09:07;25.20;;;20.07;;
13584;SDS011;6863;48.402;9.994;2022-12-17T09:11:52;24.67;;;19.47;;
13584;SDS011;6863;48.402;9.994;2022-12-17T09:14:36;22.57;;;18.73;;
13584;SDS011;6863;48.402;9.994;2022-12-17T09:17:20;23.50;;;18.77;;
13584;SDS011;6863;48.402;9.994;2022-12-17T09:20:04;25.40;;;18.80;;
13584;SDS011;6863;48.402;9.994;2022-12-17T09:22:49;25.90;;;18.97;;
13584;SDS011;6863;48.402;9.994;2022-12-17T09:25:33;22.87;;;18.10;;
13584;SDS011;6863;48.402;9.994;2022-12-17T09:28:17;23.93;;;18.07;;
13584;SDS011;6863;48.402;9.994;2022-12-17T09:31:01;22.37;;;17.70;;
13584;SDS011;6863;48.402;9.994;2022-12-17T09:33:45;24.13;;;19.13;;
13584;SDS011;6863;48.402;9.994;2022-12-17T09:36:29;23.63;;;19.50;;
13584;SDS011;6863;48.402;9.994;2022-12-17T09:39:13;22.63;;;19.00;;
13584;SDS011;6863;48.402;9.994;2022-12-17T09:45:22;22.37;;;19.30;;
13584;SDS011;6863;48.402;9.994;2022-12-17T09:48:18;24.37;;;19.17;;
13584;SDS011;6863;48.402;9.994;2022-12-17T09:51:21;22.80;;;19.80;;
13584;SDS011;6863;48.402;9.994;2022-12-17T09:54:26;23.20;;;20.07;;
13584;SDS011;6863;48.402;9.994;2022-12-17T09:57:31;23.37;;;19.80;;
13584;SDS011;6863;48.402;9.994;2022-12-17T10:00:19;22.07;;;19.77;;
13584;SDS011;6863;48.402;9.994;2022-12-17T10:03:13;22.27;;;20.07;;
13584;SDS011;6863;48.402;9.994;2022-12-17T10:06:12;22.77;;;20.30;;
13584;SDS011;6863;48.402;9.994;2022-12-17T10:09:11;22.67;;;20.23;;
13584;SDS011;6863;48.402;9.994;2022-12-17T10:11:58;22.03;;;19.80;;
13584;SDS011;6863;48.402;9.994;2022-12-17T10:14:52;23.67;;;21.17;;
13584;SDS011;6863;48.402;9.994;2022-12-17T10:17:36;24.23;;;21.77;;
13584;SDS011;6863;48.402;9.994;2022-12-17T10:20:25;23.97;;;21.47;;
13584;SDS011;6863;48.402;9.994;2022-12-17T10:23:27;23.67;;;21.13;;
13584;SDS011;6863;48.402;9.994;2022-12-17T10:26:19;24.73;;;22.27;;
13584;SDS011;6863;48.402;9.994;2022-12-17T10:29:09;23.40;;;21.03;;
13584;SDS011;6863;48.402;9.994;2022-12-17T10:31:59;23.87;;;21.37;;
13584;SDS011;6863;48.402;9.994;2022-12-17T10:35:20;23.83;;;21.27;;
13584;SDS011;6863;48.402;9.994;2022-12-17T10:38:22;24.17;;;21.60;;
13584;SDS011;6863;48.402;9.994;2022-12-17T10:44:27;23.20;;;20.80;;
13584;SDS011;6863;48.402;9.994;2022-12-17T10:47:19;23.00;;;20.60;;
13584;SDS011;6863;48.402;9.994;2022-12-17T10:50:03;24.90;;;22.07;;
13584;SDS011;6863;48.402;9.994;2022-12-17T10:52:53;25.33;;;22.73;;
13584;SDS011;6863;48.402;9.994;2022-12-17T10:55:55;24.15;;;21.75;;
13584;SDS011;6863;48.402;9.994;2022-12-17T10:58:46;23.67;;;21.30;;
13584;SDS011;6863;48.402;9.994;2022-12-17T11:01:35;23.95;;;21.20;;
13584;SDS011;6863;48.402;9.994;2022-12-17T11:07:19;23.65;;;21.25;;
13584;SDS011;6863;48.402;9.994;2022-12-17T11:10:04;24.33;;;21.92;;
13584;SDS011;6863;48.402;9.994;2022-12-17T11:13:31;25.83;;;23.35;;
13584;SDS011;6863;48.402;9.994;2022-12-17T11:16:18;24.00;;;21.70;;
13584;SDS011;6863;48.402;9.994;2022-12-17T11:19:35;23.63;;;21.20;;
13584;SDS011;6863;48.402;9.994;2022-12-17T11:22:28;22.00;;;20.00;;
13584;SDS011;6863;48.402;9.994;2022-12-17T11:28:14;23.17;;;20.92;;
13584;SDS011;6863;48.402;9.994;2022-12-17T11:31:09;23.88;;;21.60;;
13584;SDS011;6863;48.402;9.994;2022-12-17T11:34:04;23.83;;;21.63;;
13584;SDS011;6863;48.402;9.994;2022-12-17T11:37:27;22.70;;;20.52;;
13584;SDS011;6863;48.402;9.994;2022-12-17T11:40:22;24.55;;;22.25;;
13584;SDS011;6863;48.402;9.994;2022-12-17T11:49:34;23.08;;;20.88;;
13584;SDS011;6863;48.402;9.994;2022-12-17T11:52:30;23.98;;;21.52;;
13584;SDS011;6863;48.402;9.994;2022-12-17T11:58:15;23.23;;;21.02;;
13584;SDS011;6863;48.402;9.994;2022-12-17T12:01:24;23.23;;;20.83;;
13584;SDS011;6863;48.402;9.994;2022-12-17T12:08:13;26.55;;;23.75;;
13584;SDS011;6863;48.402;9.994;2022-12-17T12:23:18;26.73;;;24.15;;
13584;SDS011;6863;48.402;9.994;2022-12-17T12:26:21;27.10;;;24.33;;
13584;SDS011;6863;48.402;9.994;2022-12-17T12:35:39;29.30;;;26.35;;
13584;SDS011;6863;48.402;9.994;2022-12-17T12:38:43;29.73;;;26.55;;
13584;SDS011;6863;48.402;9.994;2022-12-17T12:41:30;29.75;;;26.73;;
13584;SDS011;6863;48.402;9.994;2022-12-17T12:50:08;29.95;;;26.85;;
13584;SDS011;6863;48.402;9.994;2022-12-17T12:52:57;29.60;;;26.45;;
13584;SDS011;6863;48.402;9.994;2022-12-17T12:55:42;33.30;;;29.85;;
13584;SDS011;6863;48.402;9.994;2022-12-17T12:58:27;31.40;;;28.00;;
13584;SDS011;6863;48.402;9.994;2022-12-17T13:01:13;29.88;;;26.80;;
13584;SDS011;6863;48.402;9.994;2022-12-17T13:03:58;31.35;;;27.75;;
13584;SDS011;6863;48.402;9.994;2022-12-17T13:06:48;31.65;;;28.13;;
13584;SDS011;6863;48.402;9.994;2022-12-17T13:17:06;31.45;;;28.25;;
13584;SDS011;6863;48.402;9.994;2022-12-17T13:24:49;33.78;;;30.08;;
13584;SDS011;6863;48.402;9.994;2022-12-17T13:41:18;36.67;;;28.47;;
13584;SDS011;6863;48.402;9.994;2022-12-17T13:43:50;35.57;;;29.20;;
13584;SDS011;6863;48.402;9.994;2022-12-17T13:46:28;32.43;;;27.47;;
13584;SDS011;6863;48.402;9.994;2022-12-17T13:49:17;35.30;;;27.13;;
13584;SDS011;6863;48.402;9.994;2022-12-17T13:54:27;35.83;;;27.90;;
13584;SDS011;6863;48.402;9.994;2022-12-17T13:56:53;35.40;;;26.80;;
13584;SDS011;6863;48.402;9.994;2022-12-17T13:59:20;36.43;;;27.30;;
13584;SDS011;6863;48.402;9.994;2022-12-17T14:01:51;36.30;;;26.70;;
13584;SDS011;6863;48.402;9.994;2022-12-17T14:04:25;36.73;;;28.07;;
13584;SDS011;6863;48.402;9.994;2022-12-17T14:06:52;36.03;;;27.63;;
13584;SDS011;6863;48.402;9.994;2022-12-17T14:09:21;37.03;;;26.63;;
13584;SDS011;6863;48.402;9.994;2022-12-17T14:11:50;37.37;;;27.50;;
13584;SDS011;6863;48.402;9.994;2022-12-17T14:14:38;37.00;;;28.23;;
13584;SDS011;6863;48.402;9.994;2022-12-17T14:17:20;41.53;;;29.00;;
13584;SDS011;6863;48.402;9.994;2022-12-17T14:19:49;39.40;;;26.97;;
13584;SDS011;6863;48.402;9.994;2022-12-17T14:22:54;37.50;;;28.60;;
13584;SDS011;6863;48.402;9.994;2022-12-17T14:25:23;38.90;;;28.97;;
13584;SDS011;6863;48.402;9.994;2022-12-17T14:28:04;40.47;;;27.43;;
13584;SDS011;6863;48.402;9.994;2022-12-17T14:30:43;39.20;;;27.23;;
13584;SDS011;6863;48.402;9.994;2022-12-17T14:35:58;43.37;;;29.03;;
13584;SDS011;6863;48.402;9.994;2022-12-17T14:38:27;45.70;;;29.63;;
13584;SDS011;6863;48.402;9.994;2022-12-17T14:40:53;41.57;;;28.53;;
13584;SDS011;6863;48.402;9.994;2022-12-17T14:43:25;37.23;;;28.87;;
13584;SDS011;6863;48.402;9.994;2022-12-17T14:45:59;40.10;;;27.80;;
13584;SDS011;6863;48.402;9.994;2022-12-17T14:48:44;40.10;;;27.63;;
13584;SDS011;6863;48.402;9.994;2022-12-17T14:51:29;41.70;;;27.03;;
13584;SDS011;6863;48.402;9.994;2022-12-17T14:56:57;44.23;;;26.63;;
13584;SDS011;6863;48.402;9.994;2022-12-17T15:02:03;40.43;;;27.60;;
13584;SDS011;6863;48.402;9.994;2022-12-17T15:04:32;43.93;;;28.93;;
13584;SDS011;6863;48.402;9.994;2022-12-17T15:07:00;41.03;;;28.43;;
13584;SDS011;6863;48.402;9.994;2022-12-17T15:09:25;45.47;;;29.20;;
13584;SDS011;6863;48.402;9.994;2022-12-17T15:11:51;45.30;;;28.70;;
13584;SDS011;6863;48.402;9.994;2022-12-17T15:14:16;40.77;;;29.70;;
13584;SDS011;6863;48.402;9.994;2022-12-17T15:16:42;46.23;;;29.17;;
13584;SDS011;6863;48.402;9.994;2022-12-17T15:19:07;48.93;;;30.07;;
13584;SDS011;6863;48.402;9.994;2022-12-17T15:21:33;45.33;;;31.30;;
13584;SDS011;6863;48.402;9.994;2022-12-17T15:23:59;44.63;;;30.67;;
13584;SDS011;6863;48.402;9.994;2022-12-17T15:26:24;46.53;;;30.10;;
13584;SDS011;6863;48.402;9.994;2022-12-17T15:28:50;49.27;;;30.73;;
13584;SDS011;6863;48.402;9.994;2022-12-17T15:31:15;48.13;;;30.93;;
13584;SDS011;6863;48.402;9.994;2022-12-17T15:33:41;54.93;;;33.03;;
13584;SDS011;6863;48.402;9.994;2022-12-17T15:36:08;59.53;;;36.53;;
13584;SDS011;6863;48.402;9.994;2022-12-17T15:38:37;62.60;;;36.47;;
13584;SDS011;6863;48.402;9.994;2022-12-17T15:41:03;53.53;;;32.20;;
13584;SDS011;6863;48.402;9.994;2022-12-17T15:43:49;57.00;;;35.77;;
13584;SDS011;6863;48.402;9.994;2022-12-17T15:46:14;63.80;;;39.47;;
13584;SDS011;6863;48.402;9.994;2022-12-17T15:48:40;55.80;;;33.03;;
13584;SDS011;6863;48.402;9.994;2022-12-17T15:51:06;54.70;;;33.30;;
13584;SDS011;6863;48.402;9.994;2022-12-17T15:53:31;57.87;;;34.40;;
13584;SDS011;6863;48.402;9.994;2022-12-17T15:56:00;53.03;;;32.53;;
13584;SDS011;6863;48.402;9.994;2022-12-17T15:58:27;55.47;;;35.07;;
13584;SDS011;6863;48.402;9.994;2022-12-17T16:00:53;86.60;;;51.00;;
13584;SDS011;6863;48.402;9.994;2022-12-17T16:03:20;50.17;;;34.73;;
13584;SDS011;6863;48.402;9.994;2022-12-17T16:05:45;56.93;;;35.00;;
13584;SDS011;6863;48.402;9.994;2022-12-17T16:08:11;58.93;;;34.13;;
13584;SDS011;6863;48.402;9.994;2022-12-17T16:10:37;50.93;;;32.50;;
13584;SDS011;6863;48.402;9.994;2022-12-17T16:13:03;53.10;;;32.53;;
13584;SDS011;6863;48.402;9.994;2022-12-17T16:15:29;51.03;;;30.00;;
13584;SDS011;6863;48.402;9.994;2022-12-17T16:17:55;46.90;;;28.83;;
13584;SDS011;6863;48.402;9.994;2022-12-17T16:20:21;47.83;;;28.73;;
13584;SDS011;6863;48.402;9.994;2022-12-17T16:22:47;51.13;;;29.50;;
13584;SDS011;6863;48.402;9.994;2022-12-17T16:25:12;49.13;;;28.97;;
13584;SDS011;6863;48.402;9.994;2022-12-17T16:27:38;46.43;;;28.97;;
13584;SDS011;6863;48.402;9.994;2022-12-17T16:30:06;44.07;;;27.70;;
13584;SDS011;6863;48.402;9.994;2022-12-17T16:32:35;44.80;;;28.00;;
13584;SDS011;6863;48.402;9.994;2022-12-17T16:35:00;43.23;;;26.83;;
13584;SDS011;6863;48.402;9.994;2022-12-17T16:37:26;45.33;;;27.63;;
13584;SDS011;6863;48.402;9.994;2022-12-17T16:39:51;43.57;;;27.47;;
13584;SDS011;6863;48.402;9.994;2022-12-17T16:42:17;46.43;;;27.00;;
13584;SDS011;6863;48.402;9.994;2022-12-17T16:44:42;41.83;;;27.03;;
13584;SDS011;6863;48.402;9.994;2022-12-17T16:47:08;45.57;;;28.80;;
13584;SDS011;6863;48.402;9.994;2022-12-17T16:49:34;40.13;;;28.07;;
13584;SDS011;6863;48.402;9.994;2022-12-17T16:52:00;42.87;;;26.57;;
13584;SDS011;6863;48.402;9.994;2022-12-17T16:54:28;46.70;;;26.70;;
13584;SDS011;6863;48.402;9.994;2022-12-17T16:56:55;44.43;;;26.43;;
13584;SDS011;6863;48.402;9.994;2022-12-17T16:59:21;40.93;;;26.87;;
13584;SDS011;6863;48.402;9.994;2022-12-17T17:01:48;43.17;;;27.43;;
13584;SDS011;6863;48.402;9.994;2022-12-17T17:04:15;42.83;;;27.60;;
13584;SDS011;6863;48.402;9.994;2022-12-17T17:06:43;48.23;;;27.63;;
13584;SDS011;6863;48.402;9.994;2022-12-17T17:09:11;40.27;;;25.17;;
13584;SDS011;6863;48.402;9.994;2022-12-17T17:11:37;42.07;;;26.33;;
13584;SDS011;6863;48.402;9.994;2022-12-17T17:14:04;42.47;;;26.77;;
13584;SDS011;6863;48.402;9.994;2022-12-17T17:16:31;42.03;;;24.90;;
13584;SDS011;6863;48.402;9.994;2022-12-17T17:18:58;37.37;;;25.43;;
13584;SDS011;6863;48.402;9.994;2022-12-17T17:21:28;45.97;;;26.37;;
13584;SDS011;6863;48.402;9.994;2022-12-17T17:26:21;47.27;;;26.73;;
13584;SDS011;6863;48.402;9.994;2022-12-17T17:28:47;39.93;;;26.03;;
13584;SDS011;6863;48.402;9.994;2022-12-17T17:31:14;44.03;;;26.33;;
13584;SDS011;6863;48.402;9.994;2022-12-17T17:33:41;38.50;;;26.97;;
13584;SDS011;6863;48.402;9.994;2022-12-17T17:36:09;41.37;;;26.57;;
13584;SDS011;6863;48.402;9.994;2022-12-17T17:38:46;39.70;;;26.27;;
13584;SDS011;6863;48.402;9.994;2022-12-17T17:41:14;43.70;;;25.30;;
13584;SDS011;6863;48.402;9.994;2022-12-17T17:43:42;40.67;;;25.57;;
13584;SDS011;6863;48.402;9.994;2022-12-17T17:46:13;41.67;;;27.17;;